createdAt,value
2023-01-11T00:01:36.023Z,2.80
2023-01-11T00:04:02.267Z,2.83
2023-01-11T00:06:28.545Z,2.92
2023-01-11T00:08:54.837Z,2.81
2023-01-11T00:11:21.082Z,2.58
2023-01-11T00:13:47.353Z,2.73
2023-01-11T00:16:13.666Z,2.91
2023-01-11T00:18:39.957Z,2.92
2023-01-11T00:21:06.233Z,2.76
2023-01-11T00:23:32.483Z,2.90
2023-01-11T00:25:58.745Z,2.85
2023-01-11T00:28:24.986Z,3.01
2023-01-11T00:30:51.258Z,2.89
2023-01-11T00:33:17.528Z,3.06
2023-01-11T00:35:43.780Z,3.38
2023-01-11T00:38:10.044Z,3.39
2023-01-11T00:40:36.306Z,3.31
2023-01-11T00:43:02.542Z,3.18
2023-01-11T00:45:28.801Z,3.20
2023-01-11T00:47:55.070Z,3.32
2023-01-11T00:50:21.334Z,3.60
2023-01-11T00:52:47.596Z,3.26
2023-01-11T00:55:13.853Z,3.49
2023-01-11T00:57:40.132Z,3.54
2023-01-11T01:00:06.417Z,3.29
2023-01-11T01:02:32.694Z,3.22
2023-01-11T01:04:58.976Z,3.50
2023-01-11T01:07:25.232Z,3.52
2023-01-11T01:09:51.498Z,3.73
2023-01-11T01:12:17.784Z,3.47
2023-01-11T01:14:44.049Z,3.68
2023-01-11T01:17:10.287Z,3.46
2023-01-11T01:19:36.587Z,3.66
2023-01-11T01:22:02.842Z,3.78
2023-01-11T01:24:29.100Z,3.70
2023-01-11T01:26:55.338Z,3.58
2023-01-11T01:29:21.596Z,3.81
2023-01-11T01:31:47.848Z,3.82
2023-01-11T01:34:14.099Z,3.62
2023-01-11T01:36:40.347Z,3.79
2023-01-11T01:39:06.598Z,3.86
2023-01-11T01:41:32.867Z,3.95
2023-01-11T01:43:59.116Z,3.90
2023-01-11T01:46:25.493Z,4.00
2023-01-11T01:48:51.787Z,4.04
2023-01-11T01:51:18.040Z,3.96
2023-01-11T01:53:44.287Z,3.92
2023-01-11T01:56:10.527Z,4.26
2023-01-11T01:58:36.760Z,4.26
2023-01-11T02:01:03.006Z,4.33
2023-01-11T02:03:29.293Z,4.32
2023-01-11T02:05:55.560Z,4.08
2023-01-11T02:08:21.853Z,4.39
2023-01-11T02:10:48.119Z,4.15
2023-01-11T02:13:14.420Z,4.07
2023-01-11T02:15:40.733Z,4.07
2023-01-11T02:18:07.017Z,4.16
2023-01-11T02:20:33.265Z,4.09
2023-01-11T02:22:59.497Z,3.96
2023-01-11T02:25:25.736Z,3.75
2023-01-11T02:27:52.004Z,3.37
2023-01-11T02:30:18.259Z,3.39
2023-01-11T02:32:44.523Z,3.35
2023-01-11T02:35:10.797Z,3.57
2023-01-11T02:37:37.056Z,3.62
2023-01-11T02:40:03.307Z,3.50
2023-01-11T02:42:29.550Z,3.33
2023-01-11T02:44:55.812Z,3.11
2023-01-11T02:47:22.065Z,3.43
2023-01-11T02:49:48.325Z,3.40
2023-01-11T02:52:14.585Z,2.97
2023-01-11T02:54:40.849Z,2.96
2023-01-11T02:57:07.125Z,2.83
2023-01-11T02:59:33.378Z,2.95
2023-01-11T03:01:59.727Z,2.95
2023-01-11T03:04:26.059Z,2.86
2023-01-11T03:06:52.393Z,3.11
2023-01-11T03:09:18.696Z,2.80
2023-01-11T03:11:44.945Z,3.00
2023-01-11T03:14:11.215Z,2.93
2023-01-11T03:16:37.492Z,2.78
2023-01-11T03:19:03.745Z,2.89
2023-01-11T03:21:30.013Z,2.90
2023-01-11T03:23:56.341Z,2.99
2023-01-11T03:26:22.578Z,2.91
2023-01-11T03:28:48.816Z,2.67
2023-01-11T03:31:15.091Z,2.68
2023-01-11T03:33:41.347Z,2.89
2023-01-11T03:36:07.576Z,2.75
2023-01-11T03:38:33.812Z,2.87
2023-01-11T03:41:00.086Z,2.78
2023-01-11T03:43:26.330Z,2.88
2023-01-11T03:45:52.571Z,2.88
2023-01-11T03:48:18.814Z,2.99
2023-01-11T03:50:45.084Z,3.12
2023-01-11T03:53:11.343Z,2.98
2023-01-11T03:55:37.612Z,2.80
2023-01-11T03:58:03.851Z,2.97
2023-01-11T04:00:30.152Z,2.98
2023-01-11T04:02:56.422Z,3.12
2023-01-11T04:05:22.656Z,2.85
2023-01-11T04:07:48.918Z,2.89
2023-01-11T04:10:15.203Z,2.91
2023-01-11T04:12:41.457Z,2.79
2023-01-11T04:15:07.711Z,2.79
2023-01-11T04:17:33.965Z,2.72
2023-01-11T04:20:00.227Z,2.54
2023-01-11T04:22:26.487Z,2.49
2023-01-11T04:24:52.736Z,2.59
2023-01-11T04:27:18.985Z,2.66
2023-01-11T04:29:45.248Z,2.51
2023-01-11T04:32:11.618Z,2.63
2023-01-11T04:34:37.868Z,2.45
2023-01-11T04:37:04.104Z,2.37
2023-01-11T04:39:30.379Z,2.32
2023-01-11T04:41:56.637Z,2.09
2023-01-11T04:44:22.892Z,2.09
2023-01-11T04:46:49.151Z,2.07
2023-01-11T04:49:15.407Z,1.97
2023-01-11T04:51:41.652Z,2.02
2023-01-11T04:54:07.911Z,2.05
2023-01-11T04:56:34.170Z,1.99
2023-01-11T04:59:00.430Z,2.07
2023-01-11T05:01:26.720Z,1.99
2023-01-11T05:03:53.028Z,2.02
2023-01-11T05:06:19.298Z,1.95
2023-01-11T05:08:45.549Z,2.02
2023-01-11T05:11:11.802Z,2.02
2023-01-11T05:13:38.066Z,2.15
2023-01-11T05:16:04.360Z,2.06
2023-01-11T05:18:30.630Z,1.92
2023-01-11T05:20:56.897Z,1.89
2023-01-11T05:23:23.185Z,2.14
2023-01-11T05:25:49.448Z,1.85
2023-01-11T05:28:15.712Z,1.72
2023-01-11T05:30:41.976Z,1.76
2023-01-11T05:33:08.244Z,1.84
2023-01-11T05:35:34.481Z,1.66
2023-01-11T05:38:00.735Z,1.64
2023-01-11T05:40:26.987Z,1.86
2023-01-11T05:42:53.229Z,1.84
2023-01-11T05:45:19.466Z,2.00
2023-01-11T05:47:45.724Z,1.92
2023-01-11T05:50:11.983Z,1.81
2023-01-11T05:52:38.241Z,2.03
2023-01-11T05:55:04.513Z,2.07
2023-01-11T05:57:30.764Z,2.00
2023-01-11T05:59:57.022Z,1.95
2023-01-11T06:02:23.391Z,2.01
2023-01-11T06:04:50.010Z,2.06
2023-01-11T06:07:16.260Z,2.30
2023-01-11T06:09:42.523Z,2.26
2023-01-11T06:12:08.777Z,2.22
2023-01-11T06:14:37.120Z,2.16
2023-01-11T06:17:04.357Z,1.99
2023-01-11T06:19:30.597Z,2.40
2023-01-11T06:21:56.895Z,2.25
2023-01-11T06:24:23.157Z,2.29
2023-01-11T06:26:49.428Z,2.30
2023-01-11T06:29:15.681Z,2.17
2023-01-11T06:31:41.916Z,2.30
2023-01-11T06:34:08.169Z,2.63
2023-01-11T06:36:36.567Z,2.38
2023-01-11T06:39:02.828Z,2.33
2023-01-11T06:41:29.070Z,2.32
2023-01-11T06:43:55.326Z,2.41
2023-01-11T06:46:21.641Z,2.15
2023-01-11T06:48:47.965Z,2.44
2023-01-11T06:51:14.234Z,2.37
2023-01-11T06:53:40.479Z,2.61
2023-01-11T06:56:06.748Z,2.42
2023-01-11T06:58:33.017Z,2.08
2023-01-11T07:00:59.369Z,2.25
2023-01-11T07:03:25.697Z,2.33
2023-01-11T07:05:51.937Z,2.47
2023-01-11T07:08:18.180Z,2.25
2023-01-11T07:10:44.418Z,2.34
2023-01-11T07:13:10.657Z,2.10
2023-01-11T07:15:36.976Z,2.25
2023-01-11T07:18:03.252Z,2.35
2023-01-11T07:20:29.521Z,2.38
2023-01-11T07:22:55.790Z,2.61
2023-01-11T07:25:22.043Z,2.32
2023-01-11T07:27:48.308Z,2.18
2023-01-11T07:30:14.559Z,2.26
2023-01-11T07:32:40.808Z,2.32
2023-01-11T07:35:07.076Z,2.40
2023-01-11T07:37:33.318Z,2.29
2023-01-11T07:39:59.563Z,2.23
2023-01-11T07:42:25.823Z,2.30
2023-01-11T07:44:52.088Z,2.16
2023-01-11T07:47:18.345Z,2.00
2023-01-11T07:49:44.602Z,2.05
2023-01-11T07:52:10.845Z,2.36
2023-01-11T07:54:37.093Z,2.33
2023-01-11T07:57:03.337Z,2.26
2023-01-11T07:59:29.583Z,2.31
2023-01-11T08:01:55.832Z,2.38
2023-01-11T08:04:22.077Z,2.37
2023-01-11T08:06:48.466Z,2.36
2023-01-11T08:09:14.746Z,2.40
2023-01-11T08:11:40.986Z,2.20
2023-01-11T08:14:07.243Z,2.35
2023-01-11T08:16:33.499Z,2.42
2023-01-11T08:18:59.855Z,2.53
2023-01-11T08:21:26.128Z,2.78
2023-01-11T08:23:52.384Z,2.55
2023-01-11T08:26:18.639Z,2.81
2023-01-11T08:28:44.915Z,2.82
2023-01-11T08:31:11.206Z,2.71
2023-01-11T08:33:37.500Z,2.50
2023-01-11T08:36:03.764Z,2.58
2023-01-11T08:38:30.034Z,2.75
2023-01-11T08:40:56.275Z,2.71
2023-01-11T08:43:22.527Z,2.70
2023-01-11T08:45:48.774Z,2.62
2023-01-11T08:48:15.040Z,2.64
2023-01-11T08:50:41.281Z,2.72
2023-01-11T08:53:07.552Z,2.70
2023-01-11T08:55:33.810Z,2.41
2023-01-11T08:58:00.054Z,2.51
2023-01-11T09:00:26.326Z,2.33
2023-01-11T09:02:52.623Z,2.38
2023-01-11T09:05:18.907Z,2.60
2023-01-11T09:07:45.157Z,2.42
2023-01-11T09:10:11.429Z,2.31
2023-01-11T09:12:37.666Z,2.39
2023-01-11T09:15:03.904Z,2.47
2023-01-11T09:17:30.322Z,2.20
2023-01-11T09:19:56.600Z,2.03
2023-01-11T09:22:22.848Z,2.20
2023-01-11T09:24:49.123Z,2.09
2023-01-11T09:27:15.431Z,2.29
2023-01-11T09:29:41.711Z,1.91
2023-01-11T09:32:07.947Z,1.93
2023-01-11T09:34:34.191Z,2.23
2023-01-11T09:37:00.435Z,2.10
2023-01-11T09:39:26.700Z,2.23
2023-01-11T09:41:52.937Z,2.00
2023-01-11T09:44:19.190Z,2.23
2023-01-11T09:46:45.439Z,2.01
2023-01-11T09:49:11.711Z,2.05
2023-01-11T09:51:37.969Z,2.10
2023-01-11T09:54:04.221Z,2.26
2023-01-11T09:56:30.572Z,2.12
2023-01-11T09:58:56.817Z,2.00
2023-01-11T10:01:23.084Z,2.09
2023-01-11T10:03:49.358Z,2.27
2023-01-11T10:06:15.619Z,2.26
2023-01-11T10:18:25.525Z,2.00
2023-01-11T10:18:27.914Z,2.12
2023-01-11T10:19:46.858Z,1.92
2023-01-11T10:22:13.223Z,1.77
2023-01-11T10:24:39.491Z,1.83
2023-01-11T10:27:05.794Z,2.01
2023-01-11T10:29:32.058Z,1.76
2023-01-11T10:31:58.291Z,1.99
2023-01-11T10:34:24.546Z,2.07
2023-01-11T10:36:50.812Z,1.93
2023-01-11T10:39:17.057Z,1.95
2023-01-11T10:41:43.379Z,1.97
2023-01-11T10:44:09.637Z,2.16
2023-01-11T10:46:35.906Z,2.04
2023-01-11T10:49:02.243Z,2.09
2023-01-11T10:51:28.537Z,2.00
2023-01-11T10:53:54.780Z,2.04
2023-01-11T10:56:21.038Z,2.05
2023-01-11T10:58:47.318Z,2.11
2023-01-11T11:01:13.611Z,2.26
2023-01-11T11:03:39.851Z,2.13
2023-01-11T11:06:06.125Z,2.22
2023-01-11T11:08:32.360Z,2.49
2023-01-11T11:10:58.669Z,2.29
2023-01-11T11:13:24.917Z,2.18
2023-01-11T11:15:53.577Z,2.18
2023-01-11T11:18:19.825Z,2.18
2023-01-11T11:20:46.091Z,2.04
2023-01-11T11:23:12.349Z,2.11
2023-01-11T11:25:38.635Z,2.42
2023-01-11T11:28:04.894Z,2.24
2023-01-11T11:30:31.129Z,2.37
2023-01-11T11:32:57.458Z,2.16
2023-01-11T11:35:23.701Z,2.06
2023-01-11T11:37:49.950Z,2.28
2023-01-11T11:40:16.199Z,2.67
2023-01-11T11:42:42.472Z,2.26
2023-01-11T11:45:08.727Z,2.30
2023-01-11T11:47:35.263Z,2.25
2023-01-11T11:50:01.516Z,1.93
2023-01-11T11:52:27.777Z,2.12
2023-01-11T11:54:54.036Z,7.70
2023-01-11T11:57:20.277Z,2.70
2023-01-11T11:59:46.521Z,1.87
2023-01-11T12:02:12.775Z,1.86
2023-01-11T12:04:39.054Z,1.96
2023-01-11T12:07:05.309Z,1.85
2023-01-11T12:09:31.587Z,1.56
2023-01-11T12:11:57.883Z,1.75
2023-01-11T12:14:24.149Z,1.92
2023-01-11T12:16:50.471Z,2.06
2023-01-11T12:19:16.764Z,2.15
2023-01-11T12:21:43.005Z,2.09
2023-01-11T12:24:09.262Z,2.15
2023-01-11T12:26:35.701Z,2.20
2023-01-11T12:29:02.241Z,2.22
2023-01-11T12:31:28.489Z,2.24
2023-01-11T12:33:54.754Z,2.18
2023-01-11T12:36:21.008Z,2.18
2023-01-11T12:38:47.253Z,2.16
2023-01-11T12:41:13.537Z,2.16
2023-01-11T12:43:39.802Z,2.40
2023-01-11T12:46:06.129Z,2.04
2023-01-11T12:48:32.445Z,2.14
2023-01-11T12:50:58.713Z,2.47
2023-01-11T12:53:24.981Z,2.42
2023-01-11T12:55:51.229Z,2.25
2023-01-11T12:58:17.481Z,2.31
2023-01-11T13:00:43.732Z,2.57
2023-01-11T13:03:09.994Z,2.66
2023-01-11T13:05:36.248Z,2.71
2023-01-11T13:08:02.509Z,2.62
2023-01-11T13:10:28.771Z,2.91
2023-01-11T13:12:55.011Z,2.68
2023-01-11T13:15:21.260Z,2.81
2023-01-11T13:17:47.496Z,2.77
2023-01-11T13:20:13.841Z,2.91
2023-01-11T13:22:40.097Z,3.05
2023-01-11T13:25:06.347Z,2.86
2023-01-11T13:27:32.605Z,3.00
2023-01-11T13:29:59.007Z,2.88
2023-01-11T13:32:25.266Z,3.10
2023-01-11T13:34:51.514Z,3.18
2023-01-11T13:37:17.759Z,2.96
2023-01-11T13:39:44.012Z,3.13
2023-01-11T13:42:10.291Z,3.03
2023-01-11T13:44:37.345Z,3.12
2023-01-11T13:47:03.694Z,3.32
2023-01-11T13:49:29.938Z,3.37
2023-01-11T13:51:56.192Z,3.29
2023-01-11T13:54:22.452Z,3.53
2023-01-11T13:56:48.698Z,3.47
2023-01-11T13:59:14.948Z,3.26
2023-01-11T14:01:41.268Z,3.07
2023-01-11T14:04:07.614Z,3.25
2023-01-11T14:06:33.876Z,3.13
2023-01-11T14:09:00.169Z,3.12
2023-01-11T14:11:26.517Z,3.19
2023-01-11T14:13:52.772Z,3.29
2023-01-11T14:16:19.052Z,3.17
2023-01-11T14:18:45.324Z,2.85
2023-01-11T14:21:11.610Z,2.97
2023-01-11T14:23:37.869Z,2.71
2023-01-11T14:26:04.103Z,2.67
2023-01-11T14:28:30.359Z,2.63
2023-01-11T14:30:56.678Z,2.63
2023-01-11T14:33:22.958Z,3.00
2023-01-11T14:35:49.243Z,2.94
2023-01-11T14:38:15.507Z,3.06
2023-01-11T14:40:41.749Z,2.78
2023-01-11T14:43:08.003Z,2.82
2023-01-11T14:45:34.261Z,3.00
2023-01-11T14:48:00.509Z,2.97
2023-01-11T14:50:26.777Z,2.86
2023-01-11T14:52:53.038Z,3.01
2023-01-11T14:55:19.305Z,3.21
2023-01-11T14:57:45.544Z,2.85
2023-01-11T15:00:11.803Z,2.84
2023-01-11T15:02:38.047Z,3.06
2023-01-11T15:05:04.291Z,2.92
2023-01-11T15:07:30.568Z,2.87
2023-01-11T15:09:56.813Z,2.99
2023-01-11T15:12:23.074Z,3.15
2023-01-11T15:14:49.327Z,3.10
2023-01-11T15:17:15.593Z,3.05
2023-01-11T15:19:41.826Z,3.08
2023-01-11T15:22:08.059Z,3.12
2023-01-11T15:24:34.401Z,3.13
2023-01-11T15:27:00.733Z,3.04
2023-01-11T15:29:27.048Z,3.10
2023-01-11T15:31:53.402Z,3.09
2023-01-11T15:34:19.739Z,3.26
2023-01-11T15:36:46.004Z,3.16
2023-01-11T15:39:12.286Z,3.58
2023-01-11T15:41:38.561Z,3.61
2023-01-11T15:44:04.820Z,3.50
2023-01-11T15:46:31.144Z,3.35
2023-01-11T15:48:57.448Z,3.30
2023-01-11T15:51:23.700Z,3.57
2023-01-11T15:53:49.965Z,3.49
2023-01-11T15:56:16.254Z,3.65
2023-01-11T15:58:42.510Z,3.74
2023-01-11T16:01:08.844Z,3.78
2023-01-11T16:03:35.148Z,3.43
2023-01-11T16:06:01.425Z,3.67
2023-01-11T16:08:27.707Z,3.91
2023-01-11T16:10:53.972Z,3.73
2023-01-11T16:13:20.253Z,3.97
2023-01-11T16:15:48.652Z,3.83
2023-01-11T16:18:15.662Z,3.98
2023-01-11T16:20:41.925Z,4.01
2023-01-11T16:23:08.163Z,3.98
2023-01-11T16:25:34.422Z,3.83
2023-01-11T16:28:00.823Z,3.91
2023-01-11T16:30:27.110Z,3.87
2023-01-11T16:32:53.360Z,4.10
2023-01-11T16:35:19.619Z,4.06
2023-01-11T16:37:45.864Z,3.94
2023-01-11T16:40:12.101Z,4.31
2023-01-11T16:42:38.357Z,4.59
2023-01-11T16:45:04.618Z,4.67
2023-01-11T16:47:30.853Z,4.68
2023-01-11T16:49:57.123Z,4.49
2023-01-11T16:52:23.372Z,4.32
2023-01-11T16:54:49.625Z,3.84
2023-01-11T16:57:16.533Z,3.36
2023-01-11T16:59:42.803Z,3.68
2023-01-11T17:02:09.109Z,4.00
2023-01-11T17:04:35.393Z,4.35
2023-01-11T17:07:01.657Z,4.01
2023-01-11T17:09:27.906Z,4.81
2023-01-11T17:11:54.152Z,5.26
2023-01-11T17:14:20.487Z,4.99
2023-01-11T17:16:46.904Z,5.56
2023-01-11T17:19:13.211Z,5.13
2023-01-11T17:21:39.453Z,4.83
2023-01-11T17:24:05.711Z,4.63
2023-01-11T17:26:31.971Z,4.48
2023-01-11T17:28:58.326Z,4.86
2023-01-11T17:31:24.621Z,5.19
2023-01-11T17:33:50.936Z,5.10
2023-01-11T17:36:17.197Z,5.69
2023-01-11T17:38:43.447Z,5.79
2023-01-11T17:41:09.770Z,5.33
2023-01-11T17:43:36.032Z,5.34
2023-01-11T17:46:02.339Z,5.45
2023-01-11T17:48:28.656Z,5.30
2023-01-11T17:50:54.924Z,5.23
2023-01-11T17:53:21.204Z,5.25
2023-01-11T17:55:47.437Z,5.91
2023-01-11T17:58:13.688Z,6.09
2023-01-11T18:00:39.932Z,6.61
2023-01-11T18:03:06.183Z,6.84
2023-01-11T18:05:32.432Z,6.37
2023-01-11T18:07:58.681Z,5.53
2023-01-11T18:10:24.932Z,5.34
2023-01-11T18:12:51.177Z,5.84
2023-01-11T18:15:17.441Z,6.22
2023-01-11T18:17:43.707Z,6.38
2023-01-11T18:20:09.957Z,6.04
2023-01-11T18:22:36.208Z,5.65
2023-01-11T18:25:02.447Z,6.05
2023-01-11T18:27:28.721Z,6.27
2023-01-11T18:29:55.039Z,6.78
2023-01-11T18:32:21.329Z,6.75
2023-01-11T18:34:47.586Z,6.82
2023-01-11T18:37:13.875Z,6.87
2023-01-11T18:39:40.120Z,6.77
2023-01-11T18:42:06.398Z,6.42
2023-01-11T18:44:32.651Z,6.36
2023-01-11T18:46:58.912Z,6.13
2023-01-11T18:49:25.169Z,5.47
2023-01-11T18:51:51.417Z,5.30
2023-01-11T18:54:17.665Z,5.57
2023-01-11T18:56:43.952Z,5.23
2023-01-11T18:59:10.215Z,5.21
2023-01-11T19:01:54.029Z,5.49
2023-01-11T19:04:22.585Z,6.18
2023-01-11T19:06:48.849Z,6.32
2023-01-11T19:09:15.417Z,6.89
2023-01-11T19:11:41.674Z,6.61
2023-01-11T19:14:07.929Z,6.96
2023-01-11T19:16:34.184Z,7.06
2023-01-11T19:19:00.436Z,7.51
2023-01-11T19:21:26.675Z,7.86
2023-01-11T19:23:53.035Z,8.39
2023-01-11T19:26:19.312Z,8.38
2023-01-11T19:28:45.548Z,8.51
2023-01-11T19:31:11.860Z,8.40
2023-01-11T19:33:38.173Z,8.64
2023-01-11T19:36:04.427Z,8.79
2023-01-11T19:38:30.673Z,8.71
2023-01-11T19:40:56.933Z,8.62
2023-01-11T19:43:23.191Z,8.59
2023-01-11T19:45:49.498Z,8.96
2023-01-11T19:48:15.767Z,9.02
2023-01-11T19:50:42.035Z,9.21
2023-01-11T19:53:08.294Z,9.70
2023-01-11T19:55:34.556Z,9.39
2023-01-11T19:58:00.815Z,10.27
2023-01-11T20:00:27.065Z,11.34
2023-01-11T20:02:53.417Z,11.93
2023-01-11T20:05:19.747Z,11.81
2023-01-11T20:07:46.019Z,12.01
2023-01-11T20:10:12.297Z,11.93
2023-01-11T20:12:38.559Z,11.93
2023-01-11T20:15:04.804Z,12.04
2023-01-11T20:17:31.053Z,11.89
2023-01-11T20:19:57.302Z,11.97
2023-01-11T20:22:23.542Z,12.34
2023-01-11T20:24:49.800Z,11.83
2023-01-11T20:27:16.095Z,11.64
2023-01-11T20:29:42.361Z,11.25
2023-01-11T20:32:28.149Z,11.68
2023-01-11T20:34:54.859Z,11.89
2023-01-11T20:37:21.116Z,11.63
2023-01-11T20:39:47.460Z,11.34
2023-01-11T20:42:14.785Z,11.96
2023-01-11T20:44:41.030Z,12.30
2023-01-11T20:47:07.297Z,12.10
2023-01-11T20:49:33.558Z,11.52
2023-01-11T20:51:59.833Z,11.76
2023-01-11T20:54:26.103Z,12.52
2023-01-11T20:56:52.370Z,11.59
2023-01-11T20:59:18.618Z,12.23
2023-01-11T21:01:44.923Z,12.99
2023-01-11T21:04:11.206Z,12.76
2023-01-11T21:06:37.453Z,12.97
2023-01-11T21:09:03.731Z,12.75
2023-01-11T21:11:29.998Z,12.95
2023-01-11T21:16:22.505Z,12.35
2023-01-11T21:18:48.843Z,11.53
2023-01-11T21:21:15.102Z,11.30
2023-01-11T21:23:41.364Z,12.03
2023-01-11T21:26:07.609Z,12.69
2023-01-11T21:28:33.963Z,14.26
2023-01-11T21:31:00.266Z,14.86
2023-01-11T21:33:26.541Z,15.53
2023-01-11T21:35:52.822Z,15.81
2023-01-11T21:38:19.092Z,15.31
2023-01-11T21:40:45.343Z,15.36
2023-01-11T21:43:11.624Z,15.82
2023-01-11T21:45:37.864Z,15.29
2023-01-11T21:48:04.129Z,14.90
2023-01-11T21:50:30.409Z,15.33
2023-01-11T21:52:56.660Z,14.84
2023-01-11T21:55:22.933Z,15.01
2023-01-11T21:57:49.224Z,14.70
2023-01-11T22:00:15.498Z,15.41
2023-01-11T22:02:41.782Z,15.57
2023-01-11T22:05:08.041Z,15.14
2023-01-11T22:07:34.304Z,14.88
2023-01-11T22:10:04.948Z,14.88
2023-01-11T22:12:31.463Z,14.41
2023-01-11T22:14:57.710Z,13.65
2023-01-11T22:17:24.002Z,13.00
2023-01-11T22:19:50.295Z,11.27
2023-01-11T22:22:16.564Z,10.66
2023-01-11T22:24:42.805Z,10.30
2023-01-11T22:27:09.113Z,10.10
2023-01-11T22:29:35.384Z,10.80
2023-01-11T22:32:01.619Z,10.64
2023-01-11T22:34:27.884Z,10.70
2023-01-11T22:36:54.164Z,12.55
2023-01-11T22:39:20.452Z,14.35
2023-01-11T22:41:46.729Z,14.21
2023-01-11T22:44:12.997Z,12.42
2023-01-11T22:46:39.269Z,11.17
2023-01-11T22:49:05.561Z,10.50
2023-01-11T22:51:31.824Z,10.59
2023-01-11T22:53:58.084Z,10.57
2023-01-11T22:56:24.342Z,11.98
2023-01-11T22:58:50.624Z,11.83
2023-01-11T23:01:16.910Z,11.09
2023-01-11T23:03:43.223Z,12.32
2023-01-11T23:06:09.598Z,11.06
2023-01-11T23:08:35.873Z,9.75
2023-01-11T23:11:02.136Z,8.41
2023-01-11T23:13:28.398Z,7.53
2023-01-11T23:15:54.668Z,7.33
2023-01-11T23:18:20.946Z,6.94
2023-01-11T23:20:47.195Z,6.38
2023-01-11T23:23:13.456Z,6.47
2023-01-11T23:25:39.745Z,6.00
2023-01-11T23:28:06.009Z,5.71
2023-01-11T23:30:32.271Z,5.33
2023-01-11T23:32:58.556Z,4.83
2023-01-11T23:35:24.819Z,4.42
2023-01-11T23:37:51.086Z,4.42
2023-01-11T23:40:17.343Z,3.93
2023-01-11T23:42:43.595Z,3.38
2023-01-11T23:45:09.843Z,3.07
2023-01-11T23:47:36.105Z,2.74
2023-01-11T23:50:02.368Z,2.68
2023-01-11T23:52:28.654Z,2.55
2023-01-11T23:54:54.997Z,2.64
2023-01-11T23:57:21.237Z,2.59
2023-01-11T23:59:47.496Z,2.55
